Terminal Aerodrome Forecast
Issued by NWS Knoxville/Tri Cities, TN

Home | Current Version | Previous Version | Text Only | Print | Product List | Glossary On
Versions: 1 2 3 4 5 6 7 8 9 10 11 12 13 14 15 16 17 18 19 20 21 22 23 24 25 26 27 28 29 30
000
FTUS44 KMRX 251120
TAFCHA
TAF
KCHA 251120Z 2512/2612 VRB03KT P6SM SCT250
     FM251600 19009KT P6SM BKN100
     FM252300 21004KT P6SM -SHRA OVC050
     FM260400 26005KT 5SM -SHRA BR BKN025 OVC040
     FM260700 28007KT 5SM -SHRA BR SCT007 OVC015=

USA.gov is the U.S. government's official web portal to all federal, state and local government web resources and services.